YGLA

Details ICAO YGLA (GLT)
Name Gladstone
Region Australia
Timezone Australia/Brisbane (UTC+10.0)
Plans Departing 14
Arriving 11
Stats Elevation 64 ft / 20 m (AMSL)
Location -23.869471° 151.224483°
Runways 1
Magnetic Variation 9.524° E
Sunrise 2017-12-13 19:03:13 UTC / 2017-12-14 05:03:13 Local
Sunset 2017-12-14 08:38:45 UTC / 2017-12-14 18:38:45 Local
Advertisement - Login to hide

Runways

ID Width Length Bearing (true) Bearing (mag) Surface Threshold Offset Overrun Length
10 98 ft / 30 m 5,354 ft / 1,632 m 110.20° 100.68° Asphalt 0 ft / 0 m 89 ft / 27 m
28 98 ft / 30 m 5,354 ft / 1,632 m 290.20° 280.68° Asphalt 322 ft / 98 m 194 ft / 59 m

Map

Weather


0- 5 10 15 20 25 30 35+ Temperature / ° C

Clouds and Precipitation
Forecast for 2017-12-14 00:00 UTC. Updated an hour ago

Ground ~20,000 ft ~40,000 ft Winds

METAR

YGLA 132030Z AUTO 19006KT 9999 // NCD 23/17 Q1012 RF00.0/000.0

TAF

TAF YGLA 131017Z 1312/1324 12010KT 9999 FEW025 FM131400 17007KT 9999 SCT025 FM132200 11012KT 9999 FEW030

Frequencies

Unicom 122.40 MHz ACTIVATE LIGHTS ONLY MULT
Tower 118.80 MHz GLADSTONE TWR
Unicom 119.55 MHz BRISBANE CENTRE MULT
Warning: Do not use this data for real-world aviation or navigation. No guarantee of current accuracy is given.